sensor_id;sensor_type;location;lat;lon;timestamp;pressure;altitude;pressure_sealevel;temperature;humidity
74524;BME280;63074;44.696;10.358;2024-01-30T00:00:06;102005.88;;;6.97;100.00
74524;BME280;63074;44.696;10.358;2024-01-30T00:02:32;102006.22;;;7.02;100.00
74524;BME280;63074;44.696;10.358;2024-01-30T00:04:59;102008.13;;;6.18;100.00
74524;BME280;63074;44.696;10.358;2024-01-30T00:07:25;102008.44;;;7.48;100.00
74524;BME280;63074;44.696;10.358;2024-01-30T00:09:51;102005.78;;;7.39;100.00
74524;BME280;63074;44.696;10.358;2024-01-30T00:12:17;101999.28;;;6.67;100.00
74524;BME280;63074;44.696;10.358;2024-01-30T00:14:44;101999.44;;;6.58;100.00
74524;BME280;63074;44.696;10.358;2024-01-30T00:17:10;101992.56;;;7.14;100.00
74524;BME280;63074;44.696;10.358;2024-01-30T00:19:36;101996.94;;;6.56;100.00
74524;BME280;63074;44.696;10.358;2024-01-30T00:22:02;102001.38;;;6.90;100.00
74524;BME280;63074;44.696;10.358;2024-01-30T00:24:29;102001.06;;;6.42;100.00
74524;BME280;63074;44.696;10.358;2024-01-30T00:26:55;101991.38;;;7.32;100.00
74524;BME280;63074;44.696;10.358;2024-01-30T00:29:21;102002.72;;;7.02;100.00
74524;BME280;63074;44.696;10.358;2024-01-30T00:31:48;102007.59;;;7.15;100.00
74524;BME280;63074;44.696;10.358;2024-01-30T00:34:15;102004.59;;;6.51;100.00
74524;BME280;63074;44.696;10.358;2024-01-30T00:36:41;102003.06;;;6.91;100.00
74524;BME280;63074;44.696;10.358;2024-01-30T00:39:07;102007.81;;;6.71;100.00
74524;BME280;63074;44.696;10.358;2024-01-30T00:41:35;102009.97;;;6.59;100.00
74524;BME280;63074;44.696;10.358;2024-01-30T00:44:01;102010.81;;;6.60;100.00
74524;BME280;63074;44.696;10.358;2024-01-30T00:46:30;102005.03;;;6.38;100.00
74524;BME280;63074;44.696;10.358;2024-01-30T00:48:56;102005.75;;;7.07;100.00
74524;BME280;63074;44.696;10.358;2024-01-30T00:51:23;102012.59;;;7.09;100.00
74524;BME280;63074;44.696;10.358;2024-01-30T00:53:49;102011.44;;;6.54;100.00
74524;BME280;63074;44.696;10.358;2024-01-30T00:56:15;102012.84;;;6.74;100.00
74524;BME280;63074;44.696;10.358;2024-01-30T00:58:44;102019.09;;;6.91;100.00
74524;BME280;63074;44.696;10.358;2024-01-30T01:01:10;102018.25;;;6.90;100.00
74524;BME280;63074;44.696;10.358;2024-01-30T01:03:36;102022.69;;;6.73;100.00
74524;BME280;63074;44.696;10.358;2024-01-30T01:06:02;102024.50;;;6.23;100.00
74524;BME280;63074;44.696;10.358;2024-01-30T01:08:32;102017.00;;;6.26;100.00
74524;BME280;63074;44.696;10.358;2024-01-30T01:10:58;102022.47;;;6.17;100.00
74524;BME280;63074;44.696;10.358;2024-01-30T01:13:24;102028.72;;;6.75;100.00
74524;BME280;63074;44.696;10.358;2024-01-30T01:15:50;102018.19;;;6.74;100.00
74524;BME280;63074;44.696;10.358;2024-01-30T01:18:16;102022.25;;;6.10;100.00
74524;BME280;63074;44.696;10.358;2024-01-30T01:20:42;102022.50;;;6.59;100.00
74524;BME280;63074;44.696;10.358;2024-01-30T01:23:09;102028.19;;;6.72;100.00
74524;BME280;63074;44.696;10.358;2024-01-30T01:25:35;102027.38;;;6.63;100.00
74524;BME280;63074;44.696;10.358;2024-01-30T01:28:01;102019.00;;;6.58;100.00
74524;BME280;63074;44.696;10.358;2024-01-30T01:30:27;102018.09;;;7.00;100.00
74524;BME280;63074;44.696;10.358;2024-01-30T01:32:55;102021.00;;;6.64;100.00
74524;BME280;63074;44.696;10.358;2024-01-30T01:35:25;102016.69;;;6.71;100.00
74524;BME280;63074;44.696;10.358;2024-01-30T01:37:52;102012.50;;;6.69;100.00
74524;BME280;63074;44.696;10.358;2024-01-30T01:40:24;102021.47;;;6.52;100.00
74524;BME280;63074;44.696;10.358;2024-01-30T01:42:51;102015.81;;;6.55;100.00
74524;BME280;63074;44.696;10.358;2024-01-30T01:45:18;102017.78;;;6.53;100.00
74524;BME280;63074;44.696;10.358;2024-01-30T01:47:45;102018.06;;;6.41;100.00
74524;BME280;63074;44.696;10.358;2024-01-30T01:50:14;102020.16;;;6.56;100.00
74524;BME280;63074;44.696;10.358;2024-01-30T01:52:44;102018.94;;;6.50;100.00
74524;BME280;63074;44.696;10.358;2024-01-30T01:55:13;102012.41;;;6.44;100.00
74524;BME280;63074;44.696;10.358;2024-01-30T01:57:41;102016.19;;;6.26;100.00
74524;BME280;63074;44.696;10.358;2024-01-30T02:00:09;102018.22;;;6.32;100.00
74524;BME280;63074;44.696;10.358;2024-01-30T02:02:37;102021.88;;;6.31;100.00
74524;BME280;63074;44.696;10.358;2024-01-30T02:05:05;102015.84;;;6.29;100.00
74524;BME280;63074;44.696;10.358;2024-01-30T02:07:31;102021.34;;;5.75;100.00
74524;BME280;63074;44.696;10.358;2024-01-30T02:09:57;102004.03;;;6.31;100.00
74524;BME280;63074;44.696;10.358;2024-01-30T02:12:24;102010.56;;;6.45;100.00
74524;BME280;63074;44.696;10.358;2024-01-30T02:14:50;102005.03;;;6.81;100.00
74524;BME280;63074;44.696;10.358;2024-01-30T02:17:17;102001.41;;;7.06;100.00
74524;BME280;63074;44.696;10.358;2024-01-30T02:19:43;102001.59;;;6.54;100.00
74524;BME280;63074;44.696;10.358;2024-01-30T02:22:10;102000.25;;;6.16;100.00
74524;BME280;63074;44.696;10.358;2024-01-30T02:24:36;101998.00;;;6.37;100.00
74524;BME280;63074;44.696;10.358;2024-01-30T02:27:02;101990.69;;;6.31;100.00
74524;BME280;63074;44.696;10.358;2024-01-30T02:29:28;102001.56;;;6.04;100.00
74524;BME280;63074;44.696;10.358;2024-01-30T02:31:54;101992.88;;;6.02;100.00
74524;BME280;63074;44.696;10.358;2024-01-30T02:34:21;102000.00;;;6.27;100.00
74524;BME280;63074;44.696;10.358;2024-01-30T02:36:47;101996.34;;;5.33;100.00
74524;BME280;63074;44.696;10.358;2024-01-30T02:39:13;101997.25;;;5.41;100.00
74524;BME280;63074;44.696;10.358;2024-01-30T02:41:39;101996.25;;;5.25;100.00
74524;BME280;63074;44.696;10.358;2024-01-30T02:44:05;101995.00;;;5.11;100.00
74524;BME280;63074;44.696;10.358;2024-01-30T02:46:32;101988.69;;;4.67;100.00
74524;BME280;63074;44.696;10.358;2024-01-30T02:48:58;101991.16;;;4.60;100.00
74524;BME280;63074;44.696;10.358;2024-01-30T02:51:24;101985.47;;;4.91;100.00
74524;BME280;63074;44.696;10.358;2024-01-30T02:53:50;101985.97;;;4.94;100.00
74524;BME280;63074;44.696;10.358;2024-01-30T02:56:16;101980.75;;;5.02;100.00
74524;BME280;63074;44.696;10.358;2024-01-30T02:58:43;101984.19;;;5.13;100.00
74524;BME280;63074;44.696;10.358;2024-01-30T03:01:09;101980.84;;;6.32;100.00
74524;BME280;63074;44.696;10.358;2024-01-30T03:03:35;101980.34;;;6.02;100.00
74524;BME280;63074;44.696;10.358;2024-01-30T03:06:02;101981.97;;;5.69;100.00
74524;BME280;63074;44.696;10.358;2024-01-30T03:08:28;101984.63;;;5.69;100.00
74524;BME280;63074;44.696;10.358;2024-01-30T03:10:54;101985.09;;;5.65;100.00
74524;BME280;63074;44.696;10.358;2024-01-30T03:13:21;101982.19;;;5.58;100.00
74524;BME280;63074;44.696;10.358;2024-01-30T03:15:49;101979.63;;;5.92;100.00
74524;BME280;63074;44.696;10.358;2024-01-30T03:18:15;101984.47;;;5.71;100.00
74524;BME280;63074;44.696;10.358;2024-01-30T03:20:41;101985.78;;;5.93;100.00
74524;BME280;63074;44.696;10.358;2024-01-30T03:23:07;101986.59;;;6.19;100.00
74524;BME280;63074;44.696;10.358;2024-01-30T03:25:34;101979.59;;;6.18;100.00
74524;BME280;63074;44.696;10.358;2024-01-30T03:28:00;101987.84;;;5.99;100.00
74524;BME280;63074;44.696;10.358;2024-01-30T03:30:26;101990.63;;;5.89;100.00
74524;BME280;63074;44.696;10.358;2024-01-30T03:32:52;101991.78;;;5.69;100.00
74524;BME280;63074;44.696;10.358;2024-01-30T03:35:19;101987.53;;;5.84;100.00
74524;BME280;63074;44.696;10.358;2024-01-30T03:37:46;101982.28;;;5.49;100.00
74524;BME280;63074;44.696;10.358;2024-01-30T03:40:12;101995.44;;;5.24;100.00
74524;BME280;63074;44.696;10.358;2024-01-30T03:42:38;101982.84;;;5.34;100.00
74524;BME280;63074;44.696;10.358;2024-01-30T03:45:05;101984.22;;;5.21;100.00
74524;BME280;63074;44.696;10.358;2024-01-30T03:47:31;101976.03;;;5.14;100.00
74524;BME280;63074;44.696;10.358;2024-01-30T03:49:57;101979.97;;;4.74;100.00
74524;BME280;63074;44.696;10.358;2024-01-30T03:52:24;101987.06;;;5.19;100.00
74524;BME280;63074;44.696;10.358;2024-01-30T03:54:50;101985.63;;;5.07;100.00
74524;BME280;63074;44.696;10.358;2024-01-30T03:57:16;101985.56;;;5.17;100.00
74524;BME280;63074;44.696;10.358;2024-01-30T03:59:45;101983.03;;;5.15;100.00
74524;BME280;63074;44.696;10.358;2024-01-30T04:02:11;101985.00;;;5.13;100.00
74524;BME280;63074;44.696;10.358;2024-01-30T04:04:38;101977.38;;;5.36;100.00
74524;BME280;63074;44.696;10.358;2024-01-30T04:07:04;101979.91;;;4.84;100.00
74524;BME280;63074;44.696;10.358;2024-01-30T04:09:30;101989.50;;;5.13;100.00
74524;BME280;63074;44.696;10.358;2024-01-30T04:11:57;101987.16;;;4.47;100.00
74524;BME280;63074;44.696;10.358;2024-01-30T04:14:23;101986.00;;;4.22;100.00
74524;BME280;63074;44.696;10.358;2024-01-30T04:16:50;101980.91;;;4.83;100.00
74524;BME280;63074;44.696;10.358;2024-01-30T04:19:16;101983.22;;;4.68;100.00
74524;BME280;63074;44.696;10.358;2024-01-30T04:21:42;101975.19;;;4.96;100.00
74524;BME280;63074;44.696;10.358;2024-01-30T04:24:08;101972.59;;;4.86;100.00
74524;BME280;63074;44.696;10.358;2024-01-30T04:26:34;101966.38;;;5.13;100.00
74524;BME280;63074;44.696;10.358;2024-01-30T04:29:01;101977.06;;;4.68;100.00
74524;BME280;63074;44.696;10.358;2024-01-30T04:31:27;101971.69;;;4.78;100.00
74524;BME280;63074;44.696;10.358;2024-01-30T04:33:53;101966.00;;;4.90;100.00
74524;BME280;63074;44.696;10.358;2024-01-30T04:36:19;101971.66;;;4.60;100.00
74524;BME280;63074;44.696;10.358;2024-01-30T04:38:45;101970.00;;;4.77;100.00
74524;BME280;63074;44.696;10.358;2024-01-30T04:41:11;101970.34;;;4.64;100.00
74524;BME280;63074;44.696;10.358;2024-01-30T04:43:38;101973.16;;;4.62;100.00
74524;BME280;63074;44.696;10.358;2024-01-30T04:46:04;101975.09;;;4.70;100.00
74524;BME280;63074;44.696;10.358;2024-01-30T04:48:31;101967.72;;;4.99;100.00
74524;BME280;63074;44.696;10.358;2024-01-30T04:50:57;101969.31;;;4.74;100.00
74524;BME280;63074;44.696;10.358;2024-01-30T04:53:24;101964.88;;;4.48;100.00
74524;BME280;63074;44.696;10.358;2024-01-30T04:55:50;101970.84;;;4.32;100.00
74524;BME280;63074;44.696;10.358;2024-01-30T04:58:16;101971.72;;;4.50;100.00
74524;BME280;63074;44.696;10.358;2024-01-30T05:00:42;101967.91;;;4.53;100.00
74524;BME280;63074;44.696;10.358;2024-01-30T05:03:09;101970.78;;;4.41;100.00
74524;BME280;63074;44.696;10.358;2024-01-30T05:05:35;101975.81;;;4.62;100.00
74524;BME280;63074;44.696;10.358;2024-01-30T05:08:01;101972.25;;;4.54;100.00
74524;BME280;63074;44.696;10.358;2024-01-30T05:10:27;101968.81;;;4.44;100.00
74524;BME280;63074;44.696;10.358;2024-01-30T05:12:54;101967.28;;;5.04;100.00
74524;BME280;63074;44.696;10.358;2024-01-30T05:15:20;101974.88;;;4.99;100.00
74524;BME280;63074;44.696;10.358;2024-01-30T05:17:47;101975.88;;;4.98;100.00
74524;BME280;63074;44.696;10.358;2024-01-30T05:20:13;101977.78;;;4.88;100.00
74524;BME280;63074;44.696;10.358;2024-01-30T05:22:39;101978.47;;;4.45;100.00
74524;BME280;63074;44.696;10.358;2024-01-30T05:25:11;101979.59;;;4.15;100.00
74524;BME280;63074;44.696;10.358;2024-01-30T05:27:38;101983.97;;;4.33;100.00
74524;BME280;63074;44.696;10.358;2024-01-30T05:30:06;101988.16;;;4.36;100.00
74524;BME280;63074;44.696;10.358;2024-01-30T05:32:32;101986.84;;;4.50;100.00
74524;BME280;63074;44.696;10.358;2024-01-30T05:34:58;101986.66;;;4.96;100.00
74524;BME280;63074;44.696;10.358;2024-01-30T05:37:25;101983.06;;;4.25;100.00
74524;BME280;63074;44.696;10.358;2024-01-30T05:39:51;101986.28;;;4.28;100.00
74524;BME280;63074;44.696;10.358;2024-01-30T05:42:17;101981.78;;;4.29;100.00
74524;BME280;63074;44.696;10.358;2024-01-30T05:44:43;101988.94;;;4.28;100.00
74524;BME280;63074;44.696;10.358;2024-01-30T05:47:09;101988.09;;;4.28;100.00
74524;BME280;63074;44.696;10.358;2024-01-30T05:49:36;101977.16;;;4.31;100.00
74524;BME280;63074;44.696;10.358;2024-01-30T05:52:03;101986.25;;;4.01;100.00
74524;BME280;63074;44.696;10.358;2024-01-30T05:54:30;101989.06;;;3.90;100.00
74524;BME280;63074;44.696;10.358;2024-01-30T05:56:56;101988.63;;;4.04;100.00
74524;BME280;63074;44.696;10.358;2024-01-30T05:59:22;101985.28;;;3.92;100.00
74524;BME280;63074;44.696;10.358;2024-01-30T06:01:49;101989.34;;;3.87;100.00
74524;BME280;63074;44.696;10.358;2024-01-30T06:04:15;101995.25;;;3.81;100.00
74524;BME280;63074;44.696;10.358;2024-01-30T06:06:42;101994.09;;;3.93;100.00
74524;BME280;63074;44.696;10.358;2024-01-30T06:09:08;101992.34;;;4.11;100.00
74524;BME280;63074;44.696;10.358;2024-01-30T06:11:38;101996.63;;;3.94;100.00
74524;BME280;63074;44.696;10.358;2024-01-30T06:14:04;101993.84;;;3.86;100.00
74524;BME280;63074;44.696;10.358;2024-01-30T06:16:31;101998.50;;;3.65;100.00
74524;BME280;63074;44.696;10.358;2024-01-30T06:18:57;101992.50;;;3.53;100.00
74524;BME280;63074;44.696;10.358;2024-01-30T06:21:24;101990.13;;;3.60;100.00
74524;BME280;63074;44.696;10.358;2024-01-30T06:23:51;102002.00;;;3.56;100.00
74524;BME280;63074;44.696;10.358;2024-01-30T06:26:17;101997.25;;;3.59;100.00
74524;BME280;63074;44.696;10.358;2024-01-30T06:28:43;101997.81;;;3.63;100.00
74524;BME280;63074;44.696;10.358;2024-01-30T06:31:10;102007.06;;;3.59;100.00
74524;BME280;63074;44.696;10.358;2024-01-30T06:33:36;102010.66;;;3.77;100.00
74524;BME280;63074;44.696;10.358;2024-01-30T06:36:02;102009.28;;;3.73;100.00
74524;BME280;63074;44.696;10.358;2024-01-30T06:38:29;102010.78;;;3.85;100.00
74524;BME280;63074;44.696;10.358;2024-01-30T06:40:55;102010.34;;;3.90;100.00
74524;BME280;63074;44.696;10.358;2024-01-30T06:43:22;102017.50;;;3.89;100.00
74524;BME280;63074;44.696;10.358;2024-01-30T06:45:48;102015.94;;;3.87;100.00
74524;BME280;63074;44.696;10.358;2024-01-30T06:48:15;102011.91;;;3.83;100.00
74524;BME280;63074;44.696;10.358;2024-01-30T06:50:41;102018.63;;;4.24;100.00
74524;BME280;63074;44.696;10.358;2024-01-30T06:53:07;102020.44;;;3.77;100.00
74524;BME280;63074;44.696;10.358;2024-01-30T06:55:33;102024.50;;;4.27;100.00
74524;BME280;63074;44.696;10.358;2024-01-30T06:57:59;102025.97;;;4.67;100.00
74524;BME280;63074;44.696;10.358;2024-01-30T07:00:26;102020.47;;;4.78;100.00
74524;BME280;63074;44.696;10.358;2024-01-30T07:02:52;102021.63;;;4.66;100.00
74524;BME280;63074;44.696;10.358;2024-01-30T07:05:18;102023.59;;;4.64;100.00
74524;BME280;63074;44.696;10.358;2024-01-30T07:07:44;102019.28;;;4.63;100.00
74524;BME280;63074;44.696;10.358;2024-01-30T07:10:10;102016.72;;;4.06;100.00
74524;BME280;63074;44.696;10.358;2024-01-30T07:12:36;102022.78;;;3.99;100.00
74524;BME280;63074;44.696;10.358;2024-01-30T07:15:03;102022.13;;;4.61;100.00
74524;BME280;63074;44.696;10.358;2024-01-30T07:17:29;102027.38;;;4.06;100.00
74524;BME280;63074;44.696;10.358;2024-01-30T07:19:55;102026.63;;;4.79;100.00
74524;BME280;63074;44.696;10.358;2024-01-30T07:22:22;102034.47;;;4.80;100.00
74524;BME280;63074;44.696;10.358;2024-01-30T07:24:48;102034.34;;;4.99;100.00
74524;BME280;63074;44.696;10.358;2024-01-30T07:27:15;102024.91;;;5.05;100.00
74524;BME280;63074;44.696;10.358;2024-01-30T07:29:43;102030.03;;;4.44;100.00
74524;BME280;63074;44.696;10.358;2024-01-30T07:32:09;102028.78;;;4.38;100.00
74524;BME280;63074;44.696;10.358;2024-01-30T07:34:36;102029.47;;;4.40;100.00
74524;BME280;63074;44.696;10.358;2024-01-30T07:37:02;102031.56;;;4.46;100.00
74524;BME280;63074;44.696;10.358;2024-01-30T07:39:28;102028.91;;;4.46;100.00
74524;BME280;63074;44.696;10.358;2024-01-30T07:41:55;102031.56;;;4.46;100.00
74524;BME280;63074;44.696;10.358;2024-01-30T07:44:21;102040.06;;;4.59;100.00
74524;BME280;63074;44.696;10.358;2024-01-30T07:46:48;102033.28;;;4.65;100.00
74524;BME280;63074;44.696;10.358;2024-01-30T07:49:14;102038.53;;;4.57;100.00
74524;BME280;63074;44.696;10.358;2024-01-30T07:51:40;102039.69;;;4.45;100.00
74524;BME280;63074;44.696;10.358;2024-01-30T07:54:12;102039.06;;;4.60;100.00
74524;BME280;63074;44.696;10.358;2024-01-30T07:56:39;102043.16;;;4.82;100.00
74524;BME280;63074;44.696;10.358;2024-01-30T07:59:05;102043.16;;;4.82;100.00
74524;BME280;63074;44.696;10.358;2024-01-30T08:01:31;102041.88;;;5.04;100.00
74524;BME280;63074;44.696;10.358;2024-01-30T08:03:57;102041.28;;;5.28;100.00
74524;BME280;63074;44.696;10.358;2024-01-30T08:06:23;102044.63;;;5.30;100.00
74524;BME280;63074;44.696;10.358;2024-01-30T08:08:49;102045.22;;;5.59;100.00
74524;BME280;63074;44.696;10.358;2024-01-30T08:11:20;102053.00;;;5.53;100.00
74524;BME280;63074;44.696;10.358;2024-01-30T08:13:54;102043.34;;;5.77;100.00
74524;BME280;63074;44.696;10.358;2024-01-30T08:16:20;102040.59;;;5.87;100.00
74524;BME280;63074;44.696;10.358;2024-01-30T08:18:46;102044.81;;;5.90;100.00
74524;BME280;63074;44.696;10.358;2024-01-30T08:21:12;102049.72;;;5.59;100.00
74524;BME280;63074;44.696;10.358;2024-01-30T08:23:39;102041.59;;;5.42;100.00
74524;BME280;63074;44.696;10.358;2024-01-30T08:26:05;102043.72;;;5.83;100.00
74524;BME280;63074;44.696;10.358;2024-01-30T08:28:32;102044.09;;;6.05;100.00
74524;BME280;63074;44.696;10.358;2024-01-30T08:30:58;102039.69;;;5.96;100.00
74524;BME280;63074;44.696;10.358;2024-01-30T08:33:24;102047.22;;;5.83;100.00
74524;BME280;63074;44.696;10.358;2024-01-30T08:35:50;102046.91;;;5.86;100.00
74524;BME280;63074;44.696;10.358;2024-01-30T08:38:16;102045.38;;;5.75;100.00
74524;BME280;63074;44.696;10.358;2024-01-30T08:40:43;102051.19;;;5.79;100.00
74524;BME280;63074;44.696;10.358;2024-01-30T08:43:10;102052.88;;;5.98;100.00
74524;BME280;63074;44.696;10.358;2024-01-30T08:45:36;102056.75;;;5.86;100.00
74524;BME280;63074;44.696;10.358;2024-01-30T08:48:02;102055.19;;;5.75;100.00
74524;BME280;63074;44.696;10.358;2024-01-30T08:50:28;102052.59;;;5.65;100.00
74524;BME280;63074;44.696;10.358;2024-01-30T08:52:55;102051.03;;;6.24;100.00
74524;BME280;63074;44.696;10.358;2024-01-30T08:55:23;102055.88;;;5.77;100.00
74524;BME280;63074;44.696;10.358;2024-01-30T08:57:49;102054.44;;;6.08;100.00
74524;BME280;63074;44.696;10.358;2024-01-30T09:00:15;102060.66;;;6.17;100.00
74524;BME280;63074;44.696;10.358;2024-01-30T09:02:42;102054.69;;;6.23;100.00
74524;BME280;63074;44.696;10.358;2024-01-30T09:05:08;102062.00;;;6.47;100.00
74524;BME280;63074;44.696;10.358;2024-01-30T09:07:34;102065.50;;;6.48;100.00
74524;BME280;63074;44.696;10.358;2024-01-30T09:10:01;102058.31;;;6.82;100.00
74524;BME280;63074;44.696;10.358;2024-01-30T09:12:27;102060.47;;;6.78;100.00
74524;BME280;63074;44.696;10.358;2024-01-30T09:14:53;102063.81;;;6.81;100.00
74524;BME280;63074;44.696;10.358;2024-01-30T09:17:19;102063.25;;;6.69;100.00
74524;BME280;63074;44.696;10.358;2024-01-30T09:19:47;102061.94;;;6.73;100.00
74524;BME280;63074;44.696;10.358;2024-01-30T09:22:13;102067.44;;;6.71;100.00
74524;BME280;63074;44.696;10.358;2024-01-30T09:24:39;102068.53;;;6.95;100.00
74524;BME280;63074;44.696;10.358;2024-01-30T09:27:06;102069.88;;;6.91;100.00
74524;BME280;63074;44.696;10.358;2024-01-30T09:29:32;102065.97;;;6.77;100.00
74524;BME280;63074;44.696;10.358;2024-01-30T09:32:00;102070.25;;;7.12;100.00
74524;BME280;63074;44.696;10.358;2024-01-30T09:34:26;102082.47;;;7.23;100.00
74524;BME280;63074;44.696;10.358;2024-01-30T09:36:53;102080.00;;;7.45;100.00
74524;BME280;63074;44.696;10.358;2024-01-30T09:39:19;102079.47;;;7.34;100.00
74524;BME280;63074;44.696;10.358;2024-01-30T09:41:50;102079.63;;;7.24;100.00
74524;BME280;63074;44.696;10.358;2024-01-30T09:44:21;102085.28;;;7.13;100.00
74524;BME280;63074;44.696;10.358;2024-01-30T09:46:49;102086.91;;;6.98;100.00
74524;BME280;63074;44.696;10.358;2024-01-30T09:49:16;102078.00;;;7.39;100.00
74524;BME280;63074;44.696;10.358;2024-01-30T09:51:45;102085.94;;;7.07;100.00
74524;BME280;63074;44.696;10.358;2024-01-30T09:54:14;102089.16;;;7.19;100.00
74524;BME280;63074;44.696;10.358;2024-01-30T09:56:41;102076.97;;;6.74;100.00
74524;BME280;63074;44.696;10.358;2024-01-30T09:59:07;102082.66;;;7.37;100.00
74524;BME280;63074;44.696;10.358;2024-01-30T10:01:35;102084.09;;;7.07;100.00
74524;BME280;63074;44.696;10.358;2024-01-30T10:04:02;102074.91;;;7.02;100.00
74524;BME280;63074;44.696;10.358;2024-01-30T10:06:28;102083.56;;;6.96;100.00
74524;BME280;63074;44.696;10.358;2024-01-30T10:08:55;102081.16;;;7.59;100.00
74524;BME280;63074;44.696;10.358;2024-01-30T10:11:21;102078.81;;;7.32;100.00
74524;BME280;63074;44.696;10.358;2024-01-30T10:13:47;102084.66;;;7.52;100.00
74524;BME280;63074;44.696;10.358;2024-01-30T10:16:15;102082.03;;;7.68;100.00
74524;BME280;63074;44.696;10.358;2024-01-30T10:18:43;102087.53;;;7.42;100.00
74524;BME280;63074;44.696;10.358;2024-01-30T10:21:09;102083.88;;;7.75;100.00
74524;BME280;63074;44.696;10.358;2024-01-30T10:23:37;102083.84;;;7.84;100.00
74524;BME280;63074;44.696;10.358;2024-01-30T10:26:08;102069.97;;;8.04;100.00
74524;BME280;63074;44.696;10.358;2024-01-30T10:28:34;102074.81;;;7.85;100.00
74524;BME280;63074;44.696;10.358;2024-01-30T10:31:00;102059.59;;;8.01;100.00
74524;BME280;63074;44.696;10.358;2024-01-30T10:33:27;102071.47;;;7.83;100.00
74524;BME280;63074;44.696;10.358;2024-01-30T10:36:05;102064.28;;;7.83;100.00
74524;BME280;63074;44.696;10.358;2024-01-30T10:38:32;102071.28;;;7.84;100.00
74524;BME280;63074;44.696;10.358;2024-01-30T10:41:00;102062.38;;;8.24;100.00
74524;BME280;63074;44.696;10.358;2024-01-30T10:44:02;102062.41;;;8.32;100.00
74524;BME280;63074;44.696;10.358;2024-01-30T10:46:32;102058.59;;;8.66;100.00
74524;BME280;63074;44.696;10.358;2024-01-30T10:49:01;102049.53;;;8.98;100.00
74524;BME280;63074;44.696;10.358;2024-01-30T10:51:28;102037.16;;;8.66;100.00
74524;BME280;63074;44.696;10.358;2024-01-30T10:53:56;102035.06;;;8.76;100.00
74524;BME280;63074;44.696;10.358;2024-01-30T10:56:23;102034.06;;;8.77;100.00
74524;BME280;63074;44.696;10.358;2024-01-30T10:58:53;102035.94;;;8.68;100.00
74524;BME280;63074;44.696;10.358;2024-01-30T11:01:20;102042.53;;;7.94;100.00
74524;BME280;63074;44.696;10.358;2024-01-30T11:03:50;102036.06;;;8.44;100.00
74524;BME280;63074;44.696;10.358;2024-01-30T11:06:17;102028.38;;;8.80;100.00
74524;BME280;63074;44.696;10.358;2024-01-30T11:08:46;102025.31;;;8.52;100.00
74524;BME280;63074;44.696;10.358;2024-01-30T11:11:12;102028.81;;;8.53;100.00
74524;BME280;63074;44.696;10.358;2024-01-30T11:13:38;102021.19;;;9.03;100.00
74524;BME280;63074;44.696;10.358;2024-01-30T11:16:06;102017.66;;;9.26;100.00
74524;BME280;63074;44.696;10.358;2024-01-30T11:18:33;102018.97;;;9.07;100.00
74524;BME280;63074;44.696;10.358;2024-01-30T11:21:01;102015.78;;;9.11;100.00
74524;BME280;63074;44.696;10.358;2024-01-30T11:23:33;102015.22;;;8.93;100.00
74524;BME280;63074;44.696;10.358;2024-01-30T11:25:59;102014.63;;;9.06;100.00
74524;BME280;63074;44.696;10.358;2024-01-30T11:28:32;102006.28;;;9.01;100.00
74524;BME280;63074;44.696;10.358;2024-01-30T11:31:04;102012.00;;;9.43;100.00
74524;BME280;63074;44.696;10.358;2024-01-30T11:33:31;102003.50;;;9.17;100.00
74524;BME280;63074;44.696;10.358;2024-01-30T11:35:59;102008.34;;;9.59;100.00
74524;BME280;63074;44.696;10.358;2024-01-30T11:38:27;102004.31;;;9.78;100.00
74524;BME280;63074;44.696;10.358;2024-01-30T11:40:55;102000.44;;;9.80;100.00
74524;BME280;63074;44.696;10.358;2024-01-30T11:43:24;101991.38;;;10.11;100.00
74524;BME280;63074;44.696;10.358;2024-01-30T11:45:50;101995.88;;;9.66;100.00
74524;BME280;63074;44.696;10.358;2024-01-30T11:48:17;101995.66;;;10.20;100.00
74524;BME280;63074;44.696;10.358;2024-01-30T11:50:44;101988.06;;;10.38;100.00
74524;BME280;63074;44.696;10.358;2024-01-30T11:53:11;101987.94;;;9.88;100.00
74524;BME280;63074;44.696;10.358;2024-01-30T11:55:37;101982.16;;;10.28;100.00
74524;BME280;63074;44.696;10.358;2024-01-30T11:58:04;101984.59;;;9.86;100.00
74524;BME280;63074;44.696;10.358;2024-01-30T12:00:30;101974.19;;;10.35;100.00
74524;BME280;63074;44.696;10.358;2024-01-30T12:02:57;101976.56;;;10.80;100.00
74524;BME280;63074;44.696;10.358;2024-01-30T12:05:24;101978.97;;;10.54;100.00
74524;BME280;63074;44.696;10.358;2024-01-30T12:07:51;101976.38;;;10.16;100.00
74524;BME280;63074;44.696;10.358;2024-01-30T12:10:17;101973.59;;;10.90;100.00
74524;BME280;63074;44.696;10.358;2024-01-30T12:12:49;101972.47;;;11.27;100.00
74524;BME280;63074;44.696;10.358;2024-01-30T12:15:16;101961.34;;;11.58;100.00
74524;BME280;63074;44.696;10.358;2024-01-30T12:17:43;101959.25;;;11.26;100.00
74524;BME280;63074;44.696;10.358;2024-01-30T12:20:11;101953.53;;;11.63;100.00
74524;BME280;63074;44.696;10.358;2024-01-30T12:22:47;101947.03;;;12.61;100.00
74524;BME280;63074;44.696;10.358;2024-01-30T12:25:18;101940.47;;;13.10;100.00
74524;BME280;63074;44.696;10.358;2024-01-30T12:27:48;101939.19;;;14.56;100.00
74524;BME280;63074;44.696;10.358;2024-01-30T12:30:18;101936.09;;;18.21;82.76
74524;BME280;63074;44.696;10.358;2024-01-30T12:32:47;101945.63;;;23.37;53.25
74524;BME280;63074;44.696;10.358;2024-01-30T12:35:17;101948.31;;;27.95;45.21
74524;BME280;63074;44.696;10.358;2024-01-30T12:37:44;101950.03;;;23.38;45.12